createdAt,value
2019-04-16T00:01:57.989Z,5.27
2019-04-16T00:04:47.447Z,4.20
2019-04-16T00:07:32.365Z,4.23
2019-04-16T00:10:04.948Z,4.67
2019-04-16T00:12:47.489Z,5.03
2019-04-16T00:15:18.923Z,3.87
2019-04-16T00:17:50.265Z,4.90
2019-04-16T00:20:21.968Z,4.70
2019-04-16T00:23:00.990Z,5.13
2019-04-16T00:25:32.281Z,4.60
2019-04-16T00:28:03.580Z,4.87
2019-04-16T00:30:36.395Z,4.47
2019-04-16T00:33:10.730Z,5.10
2019-04-16T00:35:41.396Z,4.90
2019-04-16T00:38:13.075Z,4.40
2019-04-16T00:40:44.381Z,5.07
2019-04-16T00:43:15.679Z,4.20
2019-04-16T00:48:17.496Z,4.73
2019-04-16T00:50:48.944Z,4.90
2019-04-16T00:53:20.532Z,5.10
2019-04-16T00:55:51.965Z,4.73
2019-04-16T00:58:23.266Z,4.50
2019-04-16T01:00:54.549Z,5.43
2019-04-16T01:03:26.221Z,4.93
2019-04-16T01:05:57.491Z,4.93
2019-04-16T01:08:28.929Z,5.57
2019-04-16T01:11:00.597Z,5.37
2019-04-16T01:13:32.079Z,4.43
2019-04-16T01:16:04.646Z,4.93
2019-04-16T01:18:38.537Z,4.63
2019-04-16T01:23:40.031Z,4.93
2019-04-16T01:26:11.335Z,5.70
2019-04-16T01:28:48.244Z,5.97
2019-04-16T01:31:25.578Z,5.47
2019-04-16T01:33:58.940Z,5.97
2019-04-16T01:36:30.225Z,6.73
2019-04-16T01:39:17.866Z,5.97
2019-04-16T01:41:46.471Z,6.80
2019-04-16T01:44:18.812Z,6.63
2019-04-16T01:49:21.027Z,6.50
2019-04-16T01:51:52.334Z,5.97
2019-04-16T01:54:23.619Z,6.53
2019-04-16T01:56:59.504Z,5.70
2019-04-16T01:59:28.429Z,6.33
2019-04-16T02:01:59.843Z,6.07
2019-04-16T02:04:31.475Z,5.87
2019-04-16T02:07:03.420Z,6.13
2019-04-16T02:09:35.653Z,6.03
2019-04-16T02:12:07.220Z,5.97
2019-04-16T02:14:38.488Z,6.57
2019-04-16T02:17:10.245Z,6.10
2019-04-16T02:19:41.541Z,5.77
2019-04-16T02:22:14.090Z,6.93
2019-04-16T02:24:47.830Z,6.23
2019-04-16T02:27:18.535Z,6.90
2019-04-16T02:29:50.221Z,5.60
2019-04-16T02:32:21.517Z,6.10
2019-04-16T02:34:52.954Z,5.90
2019-04-16T02:37:24.315Z,6.37
2019-04-16T02:39:55.594Z,5.60
2019-04-16T02:42:30.678Z,6.30
2019-04-16T02:45:00.441Z,6.00
2019-04-16T02:47:32.195Z,6.40
2019-04-16T02:50:05.497Z,6.20
2019-04-16T02:52:54.448Z,6.57
2019-04-16T02:55:42.595Z,7.53
2019-04-16T02:58:11.037Z,6.90
2019-04-16T03:00:57.571Z,6.67
2019-04-16T03:03:33.530Z,6.17
2019-04-16T03:06:04.996Z,6.50
2019-04-16T03:08:37.233Z,7.03
2019-04-16T03:11:08.841Z,7.13
2019-04-16T03:13:41.226Z,6.87
2019-04-16T03:16:14.538Z,7.00
2019-04-16T03:18:57.197Z,6.83
2019-04-16T03:21:28.983Z,6.83
2019-04-16T03:24:00.600Z,6.30
2019-04-16T03:26:32.028Z,7.07
2019-04-16T03:29:03.443Z,6.97
2019-04-16T03:34:21.453Z,7.00
2019-04-16T03:36:51.000Z,7.17
2019-04-16T03:39:22.300Z,7.03
2019-04-16T03:41:56.227Z,8.63
2019-04-16T03:44:26.994Z,7.17
2019-04-16T03:46:59.291Z,6.90
2019-04-16T03:49:30.573Z,6.80
2019-04-16T03:52:04.953Z,8.30
2019-04-16T03:54:35.208Z,7.10
2019-04-16T03:57:06.810Z,7.50
2019-04-16T03:59:39.944Z,7.30
2019-04-16T04:02:11.559Z,7.13
2019-04-16T04:04:43.228Z,8.13
2019-04-16T04:07:14.491Z,7.90
2019-04-16T04:09:45.929Z,8.83
2019-04-16T04:12:17.260Z,8.73
2019-04-16T04:14:51.304Z,8.40
2019-04-16T04:19:52.496Z,9.27
2019-04-16T04:22:25.812Z,8.07
2019-04-16T04:24:57.031Z,8.70
2019-04-16T04:27:28.334Z,8.47
2019-04-16T04:30:00.038Z,8.60
2019-04-16T04:32:32.532Z,7.93
2019-04-16T04:35:05.035Z,8.00
2019-04-16T04:37:36.361Z,7.20
2019-04-16T04:40:07.814Z,8.10
2019-04-16T04:45:10.677Z,8.17
2019-04-16T04:47:42.195Z,6.90
2019-04-16T04:50:16.528Z,7.87
2019-04-16T04:52:48.238Z,8.90
2019-04-16T04:55:23.358Z,7.90
2019-04-16T04:57:55.036Z,7.43
2019-04-16T05:00:27.622Z,7.70
2019-04-16T05:02:59.036Z,6.47
2019-04-16T05:05:34.511Z,8.40
2019-04-16T05:08:05.951Z,7.20
2019-04-16T05:10:42.746Z,8.47
2019-04-16T05:13:10.278Z,7.43
2019-04-16T05:15:41.576Z,8.00
2019-04-16T05:18:13.063Z,7.37
2019-04-16T05:20:47.030Z,8.00
2019-04-16T05:23:18.491Z,7.60
2019-04-16T05:25:49.931Z,7.77
2019-04-16T05:28:21.252Z,7.63
2019-04-16T05:30:53.158Z,7.63
2019-04-16T05:33:24.616Z,8.37
2019-04-16T05:35:59.270Z,7.00
2019-04-16T05:38:29.268Z,7.87
2019-04-16T05:41:12.540Z,7.43
2019-04-16T05:43:34.031Z,7.37
2019-04-16T05:46:08.721Z,7.97
2019-04-16T05:48:39.236Z,7.40
2019-04-16T05:51:11.477Z,7.53
2019-04-16T05:53:44.437Z,8.27
2019-04-16T05:56:20.206Z,8.40
2019-04-16T05:58:51.851Z,7.17
2019-04-16T06:01:31.077Z,7.63
2019-04-16T06:04:02.417Z,6.90
2019-04-16T06:06:33.764Z,7.80
2019-04-16T06:11:40.508Z,7.77
2019-04-16T06:14:32.218Z,8.33
2019-04-16T06:17:06.428Z,7.47
2019-04-16T06:19:46.453Z,8.17
2019-04-16T06:22:33.250Z,7.07
2019-04-16T06:25:23.742Z,7.57
2019-04-16T06:30:57.239Z,7.30
2019-04-16T06:33:43.446Z,7.80
2019-04-16T06:36:16.965Z,7.33
2019-04-16T06:38:51.530Z,7.33
2019-04-16T06:41:41.786Z,8.97
2019-04-16T06:44:18.496Z,7.83
2019-04-16T06:47:01.508Z,7.17
2019-04-16T06:49:40.635Z,8.87
2019-04-16T06:52:20.655Z,9.80
2019-04-16T06:55:03.707Z,8.00
2019-04-16T06:57:42.946Z,8.10
2019-04-16T07:00:15.404Z,8.80
2019-04-16T07:03:02.323Z,8.77
2019-04-16T07:05:35.281Z,7.37
2019-04-16T07:08:11.208Z,7.43
2019-04-16T07:10:50.222Z,8.37
2019-04-16T07:13:21.499Z,8.13
2019-04-16T07:15:53.338Z,8.73
2019-04-16T07:18:27.321Z,9.90
2019-04-16T07:20:58.771Z,9.47
2019-04-16T07:26:03.526Z,9.00
2019-04-16T07:28:33.384Z,9.20
2019-04-16T07:31:06.754Z,8.87
2019-04-16T07:36:17.944Z,8.87
2019-04-16T07:38:54.044Z,9.77
2019-04-16T07:41:25.455Z,9.30
2019-04-16T07:44:11.000Z,9.13
2019-04-16T07:46:47.806Z,9.37
2019-04-16T07:49:39.022Z,9.63
2019-04-16T07:52:17.969Z,9.20
2019-04-16T07:54:51.034Z,8.70
2019-04-16T07:57:22.665Z,9.03
2019-04-16T07:59:58.223Z,8.30
2019-04-16T08:02:29.941Z,8.80
2019-04-16T08:05:01.277Z,8.80
2019-04-16T08:08:57.322Z,8.43
2019-04-16T08:11:28.642Z,7.90
2019-04-16T08:14:00.402Z,9.03
2019-04-16T08:16:31.776Z,8.48
2019-04-16T08:19:03.766Z,8.00
2019-04-16T08:21:36.493Z,8.38
2019-04-16T08:24:09.869Z,7.60
2019-04-16T08:26:44.120Z,7.28
2019-04-16T08:29:14.269Z,7.92
2019-04-16T08:31:48.229Z,7.33
2019-04-16T08:34:19.531Z,7.92
2019-04-16T08:36:50.995Z,7.53
2019-04-16T08:39:22.315Z,7.47
2019-04-16T08:41:53.626Z,8.45
2019-04-16T08:44:25.291Z,7.70
2019-04-16T08:46:58.636Z,7.25
2019-04-16T08:49:30.062Z,8.40
2019-04-16T08:52:01.411Z,7.55
2019-04-16T08:54:33.197Z,6.47
2019-04-16T08:57:04.932Z,6.37
2019-04-16T08:59:36.344Z,6.60
2019-04-16T09:02:07.641Z,5.60
2019-04-16T09:04:39.350Z,5.42
2019-04-16T09:07:13.411Z,6.05
2019-04-16T09:09:49.972Z,5.28
2019-04-16T09:12:23.361Z,5.87
2019-04-16T09:14:56.115Z,6.15
2019-04-16T09:17:29.611Z,5.28
2019-04-16T09:20:05.679Z,5.25
2019-04-16T09:22:48.215Z,5.65
2019-04-16T09:27:46.008Z,5.62
2019-04-16T09:30:18.060Z,5.78
2019-04-16T09:35:59.002Z,6.78
2019-04-16T09:38:33.230Z,6.97
2019-04-16T09:41:15.238Z,6.95
2019-04-16T09:44:01.267Z,6.97
2019-04-16T09:46:50.433Z,7.33
2019-04-16T09:49:06.224Z,7.17
2019-04-16T09:51:37.673Z,6.97
2019-04-16T09:56:41.228Z,7.30
2019-04-16T09:59:16.061Z,7.25
2019-04-16T10:01:49.076Z,6.62
2019-04-16T10:04:21.234Z,6.22
2019-04-16T10:06:53.813Z,6.97
2019-04-16T10:09:25.240Z,6.65
2019-04-16T10:11:57.363Z,7.05
2019-04-16T10:17:00.340Z,7.20
2019-04-16T10:19:32.561Z,7.10
2019-04-16T10:22:03.993Z,6.87
2019-04-16T10:24:53.562Z,7.33
2019-04-16T10:27:32.299Z,7.42
2019-04-16T10:30:02.840Z,7.28
2019-04-16T10:32:34.403Z,6.15
2019-04-16T10:35:06.762Z,6.35
2019-04-16T10:40:11.458Z,6.53
2019-04-16T10:42:50.272Z,6.87
2019-04-16T10:45:24.803Z,6.42
2019-04-16T10:48:00.966Z,6.95
2019-04-16T10:51:33.559Z,6.42
2019-04-16T10:56:57.889Z,6.03
2019-04-16T10:59:46.337Z,5.85
2019-04-16T11:02:36.034Z,6.40
2019-04-16T11:05:25.709Z,6.03
2019-04-16T11:10:29.273Z,6.35
2019-04-16T11:13:02.845Z,6.35
2019-04-16T11:15:34.227Z,6.22
2019-04-16T11:18:05.921Z,6.40
2019-04-16T11:20:38.240Z,6.15
2019-04-16T11:23:09.617Z,6.20
2019-04-16T11:25:41.229Z,7.37
2019-04-16T11:28:14.326Z,6.65
2019-04-16T11:30:50.628Z,7.10
2019-04-16T11:33:23.013Z,7.08
2019-04-16T11:35:54.342Z,6.53
2019-04-16T11:38:25.627Z,10.53
2019-04-16T11:40:57.195Z,6.60
2019-04-16T11:43:28.568Z,7.80
2019-04-16T11:46:00.227Z,6.80
2019-04-16T11:48:31.647Z,6.75
2019-04-16T11:53:33.561Z,6.00
2019-04-16T11:57:51.582Z,6.35
2019-04-16T15:11:13.662Z,7.83
2019-04-16T15:13:52.662Z,7.35
2019-04-16T15:19:12.818Z,6.17
2019-04-16T15:22:02.285Z,5.58
2019-04-16T15:24:38.977Z,6.55
2019-04-16T15:27:31.681Z,6.67
2019-04-16T15:30:20.561Z,6.85
2019-04-16T15:33:10.204Z,6.97
2019-04-16T15:35:53.411Z,8.35
2019-04-16T15:38:32.962Z,7.15
2019-04-16T15:41:06.301Z,6.95
2019-04-16T15:43:55.596Z,8.03
2019-04-16T15:46:44.921Z,8.05
2019-04-16T15:49:19.549Z,10.38
2019-04-16T15:52:10.525Z,6.17
2019-04-16T15:55:02.227Z,6.50
2019-04-16T15:57:38.263Z,18.40
2019-04-16T16:00:30.534Z,7.67
2019-04-16T16:03:20.397Z,9.10
2019-04-16T16:05:53.357Z,8.90
2019-04-16T16:08:42.989Z,8.90
2019-04-16T16:11:32.825Z,9.35
2019-04-16T16:14:05.978Z,11.68
2019-04-16T16:16:41.926Z,8.70
2019-04-16T16:19:12.059Z,11.45
2019-04-16T16:21:43.348Z,8.05
2019-04-16T16:24:15.035Z,7.05
2019-04-16T16:26:46.388Z,7.55
2019-04-16T16:29:17.758Z,7.08
2019-04-16T16:34:19.533Z,7.47
2019-04-16T16:36:51.003Z,6.97
2019-04-16T16:39:22.326Z,8.28
2019-04-16T16:41:53.630Z,9.05
2019-04-16T16:44:25.238Z,7.42
2019-04-16T16:47:04.628Z,7.85
2019-04-16T16:49:39.364Z,7.28
2019-04-16T16:52:31.586Z,8.15
2019-04-16T16:55:04.558Z,8.48
2019-04-16T16:57:37.532Z,7.42
2019-04-16T17:00:23.876Z,7.92
2019-04-16T17:03:01.466Z,9.20
2019-04-16T17:05:34.445Z,15.08
2019-04-16T17:08:05.851Z,8.98
2019-04-16T17:10:37.230Z,8.43
2019-04-16T17:13:13.453Z,8.73
2019-04-16T17:15:41.576Z,12.55
2019-04-16T17:20:44.560Z,8.30
2019-04-16T17:23:17.287Z,8.78
2019-04-16T17:25:48.817Z,8.98
2019-04-16T17:28:20.223Z,9.05
2019-04-16T17:30:53.480Z,38.70
2019-04-16T17:33:25.195Z,83.80
2019-04-16T17:35:56.558Z,96.83
2019-04-16T17:38:28.963Z,41.53
2019-04-16T17:41:02.197Z,15.57
2019-04-16T17:44:00.365Z,15.03
2019-04-16T17:46:40.237Z,9.70
2019-04-16T17:49:13.467Z,10.28
2019-04-16T17:51:46.436Z,9.57
2019-04-16T17:54:22.509Z,9.33
2019-04-16T17:57:09.012Z,9.77
2019-04-16T17:59:45.048Z,8.80
2019-04-16T18:02:34.658Z,8.55
2019-04-16T18:05:08.010Z,9.60
2019-04-16T18:07:47.222Z,10.87
2019-04-16T18:10:26.738Z,10.80
2019-04-16T18:13:02.220Z,9.93
2019-04-16T18:15:35.525Z,8.50
2019-04-16T18:18:18.245Z,9.33
2019-04-16T18:20:58.861Z,8.13
2019-04-16T18:23:34.428Z,7.87
2019-04-16T18:26:22.838Z,8.47
2019-04-16T18:28:55.985Z,6.47
2019-04-16T18:31:44.371Z,8.37
2019-04-16T18:34:18.983Z,26.87
2019-04-16T18:39:45.224Z,17.67
2019-04-16T18:42:34.542Z,10.37
2019-04-16T18:45:10.363Z,10.60
2019-04-16T18:47:43.441Z,9.77
2019-04-16T18:50:16.437Z,8.50
2019-04-16T18:52:48.200Z,7.83
2019-04-16T18:55:19.924Z,7.83
2019-04-16T18:57:51.514Z,7.73
2019-04-16T19:00:40.045Z,8.20
2019-04-16T19:03:14.729Z,9.67
2019-04-16T19:05:44.889Z,9.33
2019-04-16T19:08:16.453Z,7.97
2019-04-16T19:10:48.017Z,7.97
2019-04-16T19:13:20.892Z,6.87
2019-04-16T19:15:53.273Z,7.40
2019-04-16T19:18:24.938Z,7.80
2019-04-16T19:20:57.284Z,8.33
2019-04-16T19:23:28.804Z,8.27
2019-04-16T19:26:00.446Z,8.13
2019-04-16T19:28:32.264Z,8.17
2019-04-16T19:31:04.242Z,7.97
2019-04-16T19:33:38.294Z,7.13
2019-04-16T19:36:09.263Z,6.97
2019-04-16T19:38:40.879Z,7.17
2019-04-16T19:41:13.306Z,7.27
2019-04-16T19:43:46.368Z,7.30
2019-04-16T19:46:18.956Z,7.27
2019-04-16T19:48:50.934Z,7.20
2019-04-16T19:51:23.274Z,7.60
2019-04-16T19:53:55.932Z,7.10
2019-04-16T19:56:28.389Z,7.60
2019-04-16T19:59:03.353Z,7.83
2019-04-16T20:01:38.932Z,7.13
2019-04-16T20:04:11.522Z,8.10
2019-04-16T20:06:43.855Z,7.97
2019-04-16T20:09:17.910Z,7.37
2019-04-16T20:11:54.734Z,7.70
2019-04-16T20:14:23.467Z,18.97
2019-04-16T20:16:55.412Z,9.30
2019-04-16T20:19:27.982Z,7.13
2019-04-16T20:21:59.708Z,8.13
2019-04-16T20:24:32.331Z,7.13
2019-04-16T20:27:06.461Z,7.93
2019-04-16T20:29:40.474Z,7.90
2019-04-16T20:32:12.400Z,7.30
2019-04-16T20:34:45.261Z,7.57
2019-04-16T20:37:17.679Z,7.87
2019-04-16T20:42:29.669Z,7.50
2019-04-16T20:45:01.243Z,8.60
2019-04-16T20:47:32.730Z,8.77
2019-04-16T20:50:09.278Z,8.20
2019-04-16T20:52:42.213Z,8.23
2019-04-16T20:55:21.682Z,8.20
2019-04-16T20:57:55.265Z,9.13
2019-04-16T21:00:28.235Z,8.90
2019-04-16T21:03:02.546Z,8.10
2019-04-16T21:05:35.753Z,8.47
2019-04-16T21:08:06.016Z,7.93
2019-04-16T21:10:37.333Z,9.13
2019-04-16T21:13:09.031Z,8.10
2019-04-16T21:15:40.403Z,11.07
2019-04-16T21:18:12.233Z,19.00
2019-04-16T21:20:44.683Z,12.73
2019-04-16T21:23:16.214Z,6.87
2019-04-16T21:25:47.533Z,6.67
2019-04-16T21:28:23.547Z,7.37
2019-04-16T21:30:56.597Z,7.47
2019-04-16T21:33:39.224Z,6.83
2019-04-16T21:36:12.434Z,7.90
2019-04-16T21:38:49.231Z,6.83
2019-04-16T21:41:20.840Z,7.70
2019-04-16T21:43:52.227Z,7.17
2019-04-16T21:46:23.837Z,7.17
2019-04-16T21:48:55.976Z,7.13
2019-04-16T21:51:28.258Z,7.37
2019-04-16T21:54:00.035Z,7.57
2019-04-16T21:56:31.394Z,7.70
2019-04-16T21:59:04.706Z,6.87
2019-04-16T22:01:43.659Z,6.80
2019-04-16T22:04:17.539Z,7.23
2019-04-16T22:06:52.635Z,7.67
2019-04-16T22:09:23.293Z,7.50
2019-04-16T22:11:54.974Z,7.87
2019-04-16T22:14:26.558Z,7.53
2019-04-16T22:17:02.539Z,7.03
2019-04-16T22:22:02.922Z,8.20
2019-04-16T22:24:34.515Z,7.13
2019-04-16T22:27:08.215Z,7.97
2019-04-16T22:29:40.232Z,8.33
2019-04-16T22:32:11.519Z,7.60
2019-04-16T22:34:42.969Z,7.77
2019-04-16T22:37:14.272Z,7.10
2019-04-16T22:39:50.845Z,8.30
2019-04-16T22:42:22.035Z,6.93
2019-04-16T22:44:58.141Z,7.13
2019-04-16T22:47:34.283Z,7.43
2019-04-16T22:50:16.471Z,7.83
2019-04-16T22:52:41.643Z,7.27
2019-04-16T22:55:13.265Z,7.23
2019-04-16T22:57:45.155Z,8.03
2019-04-16T23:00:21.381Z,8.03
2019-04-16T23:02:52.688Z,8.17
2019-04-16T23:05:24.224Z,7.23
2019-04-16T23:07:55.991Z,7.53
2019-04-16T23:10:27.566Z,6.83
2019-04-16T23:13:00.382Z,7.27
2019-04-16T23:15:33.490Z,7.93
2019-04-16T23:18:04.938Z,8.13
2019-04-16T23:20:37.301Z,8.40
2019-04-16T23:23:08.767Z,7.40
2019-04-16T23:28:11.828Z,7.43
2019-04-16T23:30:43.514Z,7.60
2019-04-16T23:33:14.958Z,7.80
2019-04-16T23:35:46.289Z,7.30
2019-04-16T23:38:17.581Z,7.37
2019-04-16T23:40:49.227Z,8.07
2019-04-16T23:43:37.266Z,7.03
2019-04-16T23:46:19.225Z,6.80
2019-04-16T23:48:56.388Z,8.57
2019-04-16T23:51:38.566Z,7.80
2019-04-16T23:54:14.223Z,8.20
2019-04-16T23:56:49.790Z,7.37
2019-04-16T23:59:26.829Z,8.13
